Terminal Aerodrome Forecast
Issued by NWS Riverton, WY

Home | Current Version | Previous Version | Text Only | Print | Product List | Glossary On
Versions: 1 2 3 4 5 6 7 8 9 10 11 12 13
544
FTUS45 KRIW 142337
TAFRIW
TAF
KRIW 142337Z 1500/1524 30022G30KT P6SM SCT110 BKN200
     FM150230 28011KT P6SM SCT150
     FM151300 24008KT P6SM SCT150 WS020/29035KT
     FM151700 30028G38KT P6SM FEW090 SCT150=

USA.gov is the U.S. government's official web portal to all federal, state and local government web resources and services.